Terminal Aerodrome Forecast
Issued by NWS

Home | Current Version | Previous Version | Graphics & Text | Print | Product List | Glossary On
Versions: 1 2 3 4 5 6 7 8 9 10 11 12 13 14 15 16 17 18
000
FTUS43 KMPX 230700 AAA
TAFRWF
TAF AMD
KRWF 230742Z 2308/2406 24007KT 4SM BR FEW008 SCT025
      TEMPO 2308/2312 1/2SM FG VV002
     FM231200 24007KT 2SM BR SCT008
     FM231400 27009KT P6SM SKC
     FM240100 20007KT P6SM SKC=

USA.gov is the U.S. government's official web portal to all federal, state and local government web resources and services.